sensor_id;sensor_type;location;lat;lon;timestamp;temperature;humidity
65239;SHT30;51827;51.186;6.926;2023-12-14T00:00:29;19.66;59.24
65239;SHT30;51827;51.186;6.926;2023-12-14T00:01:30;19.66;59.30
65239;SHT30;51827;51.186;6.926;2023-12-14T00:02:30;19.67;59.28
65239;SHT30;51827;51.186;6.926;2023-12-14T00:03:30;19.67;59.30
65239;SHT30;51827;51.186;6.926;2023-12-14T00:04:30;19.66;59.31
65239;SHT30;51827;51.186;6.926;2023-12-14T00:05:31;19.66;59.31
65239;SHT30;51827;51.186;6.926;2023-12-14T00:06:31;19.64;59.30
65239;SHT30;51827;51.186;6.926;2023-12-14T00:07:31;19.66;59.28
65239;SHT30;51827;51.186;6.926;2023-12-14T00:08:31;19.67;59.32
65239;SHT30;51827;51.186;6.926;2023-12-14T00:09:32;19.67;59.30
65239;SHT30;51827;51.186;6.926;2023-12-14T00:10:32;19.66;59.31
65239;SHT30;51827;51.186;6.926;2023-12-14T00:11:32;19.67;59.30
65239;SHT30;51827;51.186;6.926;2023-12-14T00:12:32;19.66;59.32
65239;SHT30;51827;51.186;6.926;2023-12-14T00:13:33;19.66;59.33
65239;SHT30;51827;51.186;6.926;2023-12-14T00:14:33;19.64;59.35
65239;SHT30;51827;51.186;6.926;2023-12-14T00:15:34;19.67;59.32
65239;SHT30;51827;51.186;6.926;2023-12-14T00:16:34;19.64;59.34
65239;SHT30;51827;51.186;6.926;2023-12-14T00:17:34;19.66;59.33
65239;SHT30;51827;51.186;6.926;2023-12-14T00:18:35;19.66;59.33
65239;SHT30;51827;51.186;6.926;2023-12-14T00:19:36;19.64;59.36
65239;SHT30;51827;51.186;6.926;2023-12-14T00:20:36;19.66;59.33
65239;SHT30;51827;51.186;6.926;2023-12-14T00:21:36;19.64;59.35
65239;SHT30;51827;51.186;6.926;2023-12-14T00:22:36;19.66;59.35
65239;SHT30;51827;51.186;6.926;2023-12-14T00:23:37;19.66;59.37
65239;SHT30;51827;51.186;6.926;2023-12-14T00:24:37;19.64;59.35
65239;SHT30;51827;51.186;6.926;2023-12-14T00:25:37;19.67;59.34
65239;SHT30;51827;51.186;6.926;2023-12-14T00:26:37;19.64;59.35
65239;SHT30;51827;51.186;6.926;2023-12-14T00:27:38;19.67;59.34
65239;SHT30;51827;51.186;6.926;2023-12-14T00:28:38;19.66;59.32
65239;SHT30;51827;51.186;6.926;2023-12-14T00:29:38;19.63;59.35
65239;SHT30;51827;51.186;6.926;2023-12-14T00:30:39;19.67;59.34
65239;SHT30;51827;51.186;6.926;2023-12-14T00:31:39;19.63;59.34
65239;SHT30;51827;51.186;6.926;2023-12-14T00:32:39;19.64;59.33
65239;SHT30;51827;51.186;6.926;2023-12-14T00:33:39;19.66;59.35
65239;SHT30;51827;51.186;6.926;2023-12-14T00:34:40;19.66;59.33
65239;SHT30;51827;51.186;6.926;2023-12-14T00:35:40;19.67;59.34
65239;SHT30;51827;51.186;6.926;2023-12-14T00:36:40;19.67;59.32
65239;SHT30;51827;51.186;6.926;2023-12-14T00:37:40;19.69;59.32
65239;SHT30;51827;51.186;6.926;2023-12-14T00:38:41;19.67;59.31
65239;SHT30;51827;51.186;6.926;2023-12-14T00:39:41;19.67;59.31
65239;SHT30;51827;51.186;6.926;2023-12-14T00:40:41;19.67;59.34
65239;SHT30;51827;51.186;6.926;2023-12-14T00:41:41;19.67;59.32
65239;SHT30;51827;51.186;6.926;2023-12-14T00:42:42;19.66;59.33
65239;SHT30;51827;51.186;6.926;2023-12-14T00:43:42;19.70;59.31
65239;SHT30;51827;51.186;6.926;2023-12-14T00:44:42;19.64;59.29
65239;SHT30;51827;51.186;6.926;2023-12-14T00:45:42;19.67;59.33
65239;SHT30;51827;51.186;6.926;2023-12-14T00:46:43;19.66;59.32
65239;SHT30;51827;51.186;6.926;2023-12-14T00:47:43;19.66;59.34
65239;SHT30;51827;51.186;6.926;2023-12-14T00:48:43;19.64;59.34
65239;SHT30;51827;51.186;6.926;2023-12-14T00:49:43;19.67;59.36
65239;SHT30;51827;51.186;6.926;2023-12-14T00:50:44;19.67;59.34
65239;SHT30;51827;51.186;6.926;2023-12-14T00:51:44;19.66;59.36
65239;SHT30;51827;51.186;6.926;2023-12-14T00:52:44;19.66;59.37
65239;SHT30;51827;51.186;6.926;2023-12-14T00:53:45;19.64;59.36
65239;SHT30;51827;51.186;6.926;2023-12-14T00:54:45;19.64;59.37
65239;SHT30;51827;51.186;6.926;2023-12-14T00:55:45;19.66;59.37
65239;SHT30;51827;51.186;6.926;2023-12-14T00:56:45;19.66;59.38
65239;SHT30;51827;51.186;6.926;2023-12-14T00:57:46;19.64;59.36
65239;SHT30;51827;51.186;6.926;2023-12-14T00:58:46;19.63;59.39
65239;SHT30;51827;51.186;6.926;2023-12-14T00:59:46;19.67;59.40
65239;SHT30;51827;51.186;6.926;2023-12-14T01:00:46;19.66;59.40
65239;SHT30;51827;51.186;6.926;2023-12-14T01:01:47;19.64;59.39
65239;SHT30;51827;51.186;6.926;2023-12-14T01:02:47;19.64;59.39
65239;SHT30;51827;51.186;6.926;2023-12-14T01:03:47;19.66;59.40
65239;SHT30;51827;51.186;6.926;2023-12-14T01:04:47;19.66;59.40
65239;SHT30;51827;51.186;6.926;2023-12-14T01:05:47;19.66;59.38
65239;SHT30;51827;51.186;6.926;2023-12-14T01:06:48;19.66;59.39
65239;SHT30;51827;51.186;6.926;2023-12-14T01:07:48;19.66;59.39
65239;SHT30;51827;51.186;6.926;2023-12-14T01:08:48;19.67;59.38
65239;SHT30;51827;51.186;6.926;2023-12-14T01:09:48;19.64;59.38
65239;SHT30;51827;51.186;6.926;2023-12-14T01:10:49;19.66;59.38
65239;SHT30;51827;51.186;6.926;2023-12-14T01:11:49;19.67;59.40
65239;SHT30;51827;51.186;6.926;2023-12-14T01:12:49;19.66;59.37
65239;SHT30;51827;51.186;6.926;2023-12-14T01:13:49;19.64;59.40
65239;SHT30;51827;51.186;6.926;2023-12-14T01:14:50;19.64;59.38
65239;SHT30;51827;51.186;6.926;2023-12-14T01:15:50;19.66;59.38
65239;SHT30;51827;51.186;6.926;2023-12-14T01:16:50;19.64;59.40
65239;SHT30;51827;51.186;6.926;2023-12-14T01:17:50;19.67;59.42
65239;SHT30;51827;51.186;6.926;2023-12-14T01:18:51;19.66;59.41
65239;SHT30;51827;51.186;6.926;2023-12-14T01:19:51;19.66;59.38
65239;SHT30;51827;51.186;6.926;2023-12-14T01:20:51;19.66;59.37
65239;SHT30;51827;51.186;6.926;2023-12-14T01:21:52;19.66;59.37
65239;SHT30;51827;51.186;6.926;2023-12-14T01:22:52;19.67;59.37
65239;SHT30;51827;51.186;6.926;2023-12-14T01:23:52;19.66;59.40
65239;SHT30;51827;51.186;6.926;2023-12-14T01:24:53;19.67;59.38
65239;SHT30;51827;51.186;6.926;2023-12-14T01:25:53;19.67;59.40
65239;SHT30;51827;51.186;6.926;2023-12-14T01:26:53;19.66;59.38
65239;SHT30;51827;51.186;6.926;2023-12-14T01:27:53;19.64;59.40
65239;SHT30;51827;51.186;6.926;2023-12-14T01:28:54;19.67;59.39
65239;SHT30;51827;51.186;6.926;2023-12-14T01:29:54;19.67;59.38
65239;SHT30;51827;51.186;6.926;2023-12-14T01:30:54;19.67;59.41
65239;SHT30;51827;51.186;6.926;2023-12-14T01:31:54;19.66;59.42
65239;SHT30;51827;51.186;6.926;2023-12-14T01:32:55;19.67;59.40
65239;SHT30;51827;51.186;6.926;2023-12-14T01:33:55;19.66;59.42
65239;SHT30;51827;51.186;6.926;2023-12-14T01:34:55;19.66;59.39
65239;SHT30;51827;51.186;6.926;2023-12-14T01:35:55;19.66;59.42
65239;SHT30;51827;51.186;6.926;2023-12-14T01:36:56;19.69;59.39
65239;SHT30;51827;51.186;6.926;2023-12-14T01:37:56;19.69;59.40
65239;SHT30;51827;51.186;6.926;2023-12-14T01:38:56;19.66;59.36
65239;SHT30;51827;51.186;6.926;2023-12-14T01:39:56;19.67;59.41
65239;SHT30;51827;51.186;6.926;2023-12-14T01:40:57;19.67;59.40
65239;SHT30;51827;51.186;6.926;2023-12-14T01:41:57;19.69;59.38
65239;SHT30;51827;51.186;6.926;2023-12-14T01:43:09;19.69;59.37
65239;SHT30;51827;51.186;6.926;2023-12-14T01:44:10;19.66;59.37
65239;SHT30;51827;51.186;6.926;2023-12-14T01:45:10;19.66;59.33
65239;SHT30;51827;51.186;6.926;2023-12-14T01:46:10;19.67;59.35
65239;SHT30;51827;51.186;6.926;2023-12-14T01:47:11;19.69;59.40
65239;SHT30;51827;51.186;6.926;2023-12-14T01:48:11;19.69;59.36
65239;SHT30;51827;51.186;6.926;2023-12-14T01:49:11;19.64;59.41
65239;SHT30;51827;51.186;6.926;2023-12-14T01:50:11;19.67;59.40
65239;SHT30;51827;51.186;6.926;2023-12-14T01:51:12;19.69;59.42
65239;SHT30;51827;51.186;6.926;2023-12-14T01:52:12;19.67;59.41
65239;SHT30;51827;51.186;6.926;2023-12-14T01:53:12;19.67;59.41
65239;SHT30;51827;51.186;6.926;2023-12-14T01:54:12;19.66;59.41
65239;SHT30;51827;51.186;6.926;2023-12-14T01:55:13;19.66;59.42
65239;SHT30;51827;51.186;6.926;2023-12-14T01:56:13;19.66;59.48
65239;SHT30;51827;51.186;6.926;2023-12-14T01:57:13;19.66;59.46
65239;SHT30;51827;51.186;6.926;2023-12-14T01:58:13;19.64;59.44
65239;SHT30;51827;51.186;6.926;2023-12-14T01:59:14;19.66;59.46
65239;SHT30;51827;51.186;6.926;2023-12-14T02:00:25;19.64;59.42
65239;SHT30;51827;51.186;6.926;2023-12-14T02:01:52;19.67;59.44
65239;SHT30;51827;51.186;6.926;2023-12-14T02:02:52;19.67;59.42
65239;SHT30;51827;51.186;6.926;2023-12-14T02:03:53;19.66;59.42
65239;SHT30;51827;51.186;6.926;2023-12-14T02:04:53;19.67;59.41
65239;SHT30;51827;51.186;6.926;2023-12-14T02:05:53;19.67;59.45
65239;SHT30;51827;51.186;6.926;2023-12-14T02:06:53;19.67;59.47
65239;SHT30;51827;51.186;6.926;2023-12-14T02:07:54;19.69;59.42
65239;SHT30;51827;51.186;6.926;2023-12-14T02:08:54;19.66;59.47
65239;SHT30;51827;51.186;6.926;2023-12-14T02:09:54;19.64;59.46
65239;SHT30;51827;51.186;6.926;2023-12-14T02:10:54;19.64;59.44
65239;SHT30;51827;51.186;6.926;2023-12-14T02:11:55;19.66;59.44
65239;SHT30;51827;51.186;6.926;2023-12-14T02:12:55;19.66;59.42
65239;SHT30;51827;51.186;6.926;2023-12-14T02:13:55;19.67;59.42
65239;SHT30;51827;51.186;6.926;2023-12-14T02:14:56;19.66;59.42
65239;SHT30;51827;51.186;6.926;2023-12-14T02:15:56;19.66;59.45
65239;SHT30;51827;51.186;6.926;2023-12-14T02:16:56;19.67;59.44
65239;SHT30;51827;51.186;6.926;2023-12-14T02:17:57;19.66;59.45
65239;SHT30;51827;51.186;6.926;2023-12-14T02:18:57;19.66;59.48
65239;SHT30;51827;51.186;6.926;2023-12-14T02:19:58;19.66;59.46
65239;SHT30;51827;51.186;6.926;2023-12-14T02:20:58;19.69;59.46
65239;SHT30;51827;51.186;6.926;2023-12-14T02:21:58;19.67;59.45
65239;SHT30;51827;51.186;6.926;2023-12-14T02:22:58;19.67;59.47
65239;SHT30;51827;51.186;6.926;2023-12-14T02:23:59;19.66;59.47
65239;SHT30;51827;51.186;6.926;2023-12-14T02:24:59;19.66;59.48
65239;SHT30;51827;51.186;6.926;2023-12-14T02:25:59;19.67;59.46
65239;SHT30;51827;51.186;6.926;2023-12-14T02:26:59;19.66;59.46
65239;SHT30;51827;51.186;6.926;2023-12-14T02:28:00;19.67;59.42
65239;SHT30;51827;51.186;6.926;2023-12-14T02:29:00;19.67;59.45
65239;SHT30;51827;51.186;6.926;2023-12-14T02:30:00;19.66;59.42
65239;SHT30;51827;51.186;6.926;2023-12-14T02:31:00;19.67;59.46
65239;SHT30;51827;51.186;6.926;2023-12-14T02:32:01;19.67;59.47
65239;SHT30;51827;51.186;6.926;2023-12-14T02:33:01;19.66;59.47
65239;SHT30;51827;51.186;6.926;2023-12-14T02:34:01;19.67;59.46
65239;SHT30;51827;51.186;6.926;2023-12-14T02:35:02;19.67;59.47
65239;SHT30;51827;51.186;6.926;2023-12-14T02:36:02;19.69;59.51
65239;SHT30;51827;51.186;6.926;2023-12-14T02:37:02;19.66;59.48
65239;SHT30;51827;51.186;6.926;2023-12-14T02:38:03;19.66;59.47
65239;SHT30;51827;51.186;6.926;2023-12-14T02:39:03;19.64;59.50
65239;SHT30;51827;51.186;6.926;2023-12-14T02:40:04;19.66;59.54
65239;SHT30;51827;51.186;6.926;2023-12-14T02:41:04;19.67;59.49
65239;SHT30;51827;51.186;6.926;2023-12-14T02:42:05;19.67;59.46
65239;SHT30;51827;51.186;6.926;2023-12-14T02:43:05;19.67;59.43
65239;SHT30;51827;51.186;6.926;2023-12-14T02:44:05;19.69;59.46
65239;SHT30;51827;51.186;6.926;2023-12-14T02:45:07;19.69;59.45
65239;SHT30;51827;51.186;6.926;2023-12-14T02:46:08;19.66;59.43
65239;SHT30;51827;51.186;6.926;2023-12-14T02:47:08;19.67;59.45
65239;SHT30;51827;51.186;6.926;2023-12-14T02:48:08;19.67;59.47
65239;SHT30;51827;51.186;6.926;2023-12-14T02:49:09;19.66;59.46
65239;SHT30;51827;51.186;6.926;2023-12-14T02:50:09;19.69;59.49
65239;SHT30;51827;51.186;6.926;2023-12-14T02:51:13;19.66;59.48
65239;SHT30;51827;51.186;6.926;2023-12-14T02:52:14;19.64;59.49
65239;SHT30;51827;51.186;6.926;2023-12-14T02:53:14;19.66;59.44
65239;SHT30;51827;51.186;6.926;2023-12-14T02:54:14;19.69;59.48
65239;SHT30;51827;51.186;6.926;2023-12-14T02:55:14;19.66;59.47
65239;SHT30;51827;51.186;6.926;2023-12-14T02:56:15;19.69;59.50
65239;SHT30;51827;51.186;6.926;2023-12-14T02:57:15;19.66;59.48
65239;SHT30;51827;51.186;6.926;2023-12-14T02:58:15;19.69;59.48
65239;SHT30;51827;51.186;6.926;2023-12-14T02:59:15;19.67;59.47
65239;SHT30;51827;51.186;6.926;2023-12-14T03:00:16;19.67;59.49
65239;SHT30;51827;51.186;6.926;2023-12-14T03:01:20;19.67;59.48
65239;SHT30;51827;51.186;6.926;2023-12-14T03:02:20;19.69;59.47
65239;SHT30;51827;51.186;6.926;2023-12-14T03:03:20;19.67;59.47
65239;SHT30;51827;51.186;6.926;2023-12-14T03:04:20;19.67;59.51
65239;SHT30;51827;51.186;6.926;2023-12-14T03:05:21;19.66;59.46
65239;SHT30;51827;51.186;6.926;2023-12-14T03:06:21;19.69;59.44
65239;SHT30;51827;51.186;6.926;2023-12-14T03:07:21;19.67;59.49
65239;SHT30;51827;51.186;6.926;2023-12-14T03:08:21;19.66;59.47
65239;SHT30;51827;51.186;6.926;2023-12-14T03:09:22;19.67;59.51
65239;SHT30;51827;51.186;6.926;2023-12-14T03:10:22;19.66;59.49
65239;SHT30;51827;51.186;6.926;2023-12-14T03:11:23;19.67;59.50
65239;SHT30;51827;51.186;6.926;2023-12-14T03:12:23;19.69;59.47
65239;SHT30;51827;51.186;6.926;2023-12-14T03:13:24;19.66;59.51
65239;SHT30;51827;51.186;6.926;2023-12-14T03:14:24;19.67;59.49
65239;SHT30;51827;51.186;6.926;2023-12-14T03:15:24;19.70;59.49
65239;SHT30;51827;51.186;6.926;2023-12-14T03:16:24;19.67;59.47
65239;SHT30;51827;51.186;6.926;2023-12-14T03:17:25;19.66;59.50
65239;SHT30;51827;51.186;6.926;2023-12-14T03:18:25;19.64;59.49
65239;SHT30;51827;51.186;6.926;2023-12-14T03:19:25;19.69;59.47
65239;SHT30;51827;51.186;6.926;2023-12-14T03:20:25;19.67;59.52
65239;SHT30;51827;51.186;6.926;2023-12-14T03:21:26;19.64;59.50
65239;SHT30;51827;51.186;6.926;2023-12-14T03:22:26;19.67;59.51
65239;SHT30;51827;51.186;6.926;2023-12-14T03:23:26;19.67;59.54
65239;SHT30;51827;51.186;6.926;2023-12-14T03:24:26;19.66;59.52
65239;SHT30;51827;51.186;6.926;2023-12-14T03:25:27;19.67;59.51
65239;SHT30;51827;51.186;6.926;2023-12-14T03:26:27;19.69;59.48
65239;SHT30;51827;51.186;6.926;2023-12-14T03:27:27;19.66;59.49
65239;SHT30;51827;51.186;6.926;2023-12-14T03:28:28;19.69;59.50
65239;SHT30;51827;51.186;6.926;2023-12-14T03:29:28;19.67;59.48
65239;SHT30;51827;51.186;6.926;2023-12-14T03:30:28;19.66;59.50
65239;SHT30;51827;51.186;6.926;2023-12-14T03:31:29;19.69;59.47
65239;SHT30;51827;51.186;6.926;2023-12-14T03:32:29;19.71;59.49
65239;SHT30;51827;51.186;6.926;2023-12-14T03:33:29;19.67;59.48
65239;SHT30;51827;51.186;6.926;2023-12-14T03:34:29;19.69;59.45
65239;SHT30;51827;51.186;6.926;2023-12-14T03:35:30;19.67;59.45
65239;SHT30;51827;51.186;6.926;2023-12-14T03:36:30;19.67;59.49
65239;SHT30;51827;51.186;6.926;2023-12-14T03:37:30;19.67;59.42
65239;SHT30;51827;51.186;6.926;2023-12-14T03:38:31;19.67;59.49
65239;SHT30;51827;51.186;6.926;2023-12-14T03:39:31;19.69;59.47
65239;SHT30;51827;51.186;6.926;2023-12-14T03:40:32;19.69;59.44
65239;SHT30;51827;51.186;6.926;2023-12-14T03:41:32;19.69;59.45
65239;SHT30;51827;51.186;6.926;2023-12-14T03:42:32;19.67;59.48
65239;SHT30;51827;51.186;6.926;2023-12-14T03:43:32;19.69;59.48
65239;SHT30;51827;51.186;6.926;2023-12-14T03:44:33;19.67;59.44
65239;SHT30;51827;51.186;6.926;2023-12-14T03:45:33;19.69;59.49
65239;SHT30;51827;51.186;6.926;2023-12-14T03:46:33;19.67;59.49
65239;SHT30;51827;51.186;6.926;2023-12-14T03:47:33;19.66;59.50
65239;SHT30;51827;51.186;6.926;2023-12-14T03:48:34;19.64;59.50
65239;SHT30;51827;51.186;6.926;2023-12-14T03:49:37;19.66;59.52
65239;SHT30;51827;51.186;6.926;2023-12-14T03:50:38;19.66;59.54
65239;SHT30;51827;51.186;6.926;2023-12-14T03:51:38;19.66;59.52
65239;SHT30;51827;51.186;6.926;2023-12-14T03:52:38;19.67;59.48
65239;SHT30;51827;51.186;6.926;2023-12-14T03:53:38;19.66;59.50
65239;SHT30;51827;51.186;6.926;2023-12-14T03:54:39;19.69;59.50
65239;SHT30;51827;51.186;6.926;2023-12-14T03:55:39;19.66;59.48
65239;SHT30;51827;51.186;6.926;2023-12-14T03:56:39;19.66;59.47
65239;SHT30;51827;51.186;6.926;2023-12-14T03:57:39;19.66;59.49
65239;SHT30;51827;51.186;6.926;2023-12-14T03:58:40;19.69;59.52
65239;SHT30;51827;51.186;6.926;2023-12-14T03:59:40;19.67;59.54
65239;SHT30;51827;51.186;6.926;2023-12-14T04:00:40;19.67;59.53
65239;SHT30;51827;51.186;6.926;2023-12-14T04:01:40;19.67;59.52
65239;SHT30;51827;51.186;6.926;2023-12-14T04:02:41;19.67;59.51
65239;SHT30;51827;51.186;6.926;2023-12-14T04:03:41;19.64;59.50
65239;SHT30;51827;51.186;6.926;2023-12-14T04:04:41;19.69;59.50
65239;SHT30;51827;51.186;6.926;2023-12-14T04:05:41;19.67;59.51
65239;SHT30;51827;51.186;6.926;2023-12-14T04:06:42;19.64;59.53
65239;SHT30;51827;51.186;6.926;2023-12-14T04:07:42;19.67;59.51
65239;SHT30;51827;51.186;6.926;2023-12-14T04:08:42;19.67;59.55
65239;SHT30;51827;51.186;6.926;2023-12-14T04:09:44;19.66;59.50
65239;SHT30;51827;51.186;6.926;2023-12-14T04:10:44;19.66;59.51
65239;SHT30;51827;51.186;6.926;2023-12-14T04:11:44;19.67;59.54
65239;SHT30;51827;51.186;6.926;2023-12-14T04:12:45;19.66;59.61
65239;SHT30;51827;51.186;6.926;2023-12-14T04:13:45;19.69;59.61
65239;SHT30;51827;51.186;6.926;2023-12-14T04:14:46;19.67;59.60
65239;SHT30;51827;51.186;6.926;2023-12-14T04:15:46;19.67;59.60
65239;SHT30;51827;51.186;6.926;2023-12-14T04:16:46;19.70;59.59
65239;SHT30;51827;51.186;6.926;2023-12-14T04:17:46;19.69;59.51
65239;SHT30;51827;51.186;6.926;2023-12-14T04:18:47;19.67;59.51
65239;SHT30;51827;51.186;6.926;2023-12-14T04:19:47;19.70;59.49
65239;SHT30;51827;51.186;6.926;2023-12-14T04:20:47;19.70;59.51
65239;SHT30;51827;51.186;6.926;2023-12-14T04:21:48;19.67;59.51
65239;SHT30;51827;51.186;6.926;2023-12-14T04:22:48;19.67;59.53
65239;SHT30;51827;51.186;6.926;2023-12-14T04:23:48;19.69;59.51
65239;SHT30;51827;51.186;6.926;2023-12-14T04:24:49;19.70;59.47
65239;SHT30;51827;51.186;6.926;2023-12-14T04:25:50;19.70;59.48
65239;SHT30;51827;51.186;6.926;2023-12-14T04:26:50;19.69;59.47
65239;SHT30;51827;51.186;6.926;2023-12-14T04:27:50;19.69;59.44
65239;SHT30;51827;51.186;6.926;2023-12-14T04:28:50;19.69;59.45
65239;SHT30;51827;51.186;6.926;2023-12-14T04:29:51;19.67;59.44
65239;SHT30;51827;51.186;6.926;2023-12-14T04:30:51;19.69;59.41
65239;SHT30;51827;51.186;6.926;2023-12-14T04:31:51;19.70;59.42
65239;SHT30;51827;51.186;6.926;2023-12-14T04:32:51;19.67;59.40
65239;SHT30;51827;51.186;6.926;2023-12-14T04:33:52;19.69;59.43
65239;SHT30;51827;51.186;6.926;2023-12-14T04:34:52;19.70;59.45
65239;SHT30;51827;51.186;6.926;2023-12-14T04:35:52;19.70;59.47
65239;SHT30;51827;51.186;6.926;2023-12-14T04:36:53;19.69;59.45
65239;SHT30;51827;51.186;6.926;2023-12-14T04:37:53;19.67;59.41
65239;SHT30;51827;51.186;6.926;2023-12-14T04:38:53;19.71;59.47
65239;SHT30;51827;51.186;6.926;2023-12-14T04:39:53;19.69;59.45
65239;SHT30;51827;51.186;6.926;2023-12-14T04:40:54;19.69;59.47
65239;SHT30;51827;51.186;6.926;2023-12-14T04:41:54;19.70;59.49
65239;SHT30;51827;51.186;6.926;2023-12-14T04:42:54;19.70;59.49
65239;SHT30;51827;51.186;6.926;2023-12-14T04:43:55;19.70;59.51
65239;SHT30;51827;51.186;6.926;2023-12-14T04:44:55;19.70;59.50
65239;SHT30;51827;51.186;6.926;2023-12-14T04:45:55;19.70;59.54
65239;SHT30;51827;51.186;6.926;2023-12-14T04:46:55;19.70;59.55
65239;SHT30;51827;51.186;6.926;2023-12-14T04:47:55;19.69;59.54
65239;SHT30;51827;51.186;6.926;2023-12-14T04:48:56;19.67;59.57
65239;SHT30;51827;51.186;6.926;2023-12-14T04:49:56;19.71;59.57
65239;SHT30;51827;51.186;6.926;2023-12-14T04:50:56;19.69;59.63
65239;SHT30;51827;51.186;6.926;2023-12-14T04:51:56;19.69;59.60
65239;SHT30;51827;51.186;6.926;2023-12-14T04:52:57;19.67;59.62
65239;SHT30;51827;51.186;6.926;2023-12-14T04:53:57;19.69;59.64
65239;SHT30;51827;51.186;6.926;2023-12-14T04:54:57;19.70;59.95
65239;SHT30;51827;51.186;6.926;2023-12-14T04:55:58;19.70;59.93
65239;SHT30;51827;51.186;6.926;2023-12-14T04:56:58;19.70;59.85
65239;SHT30;51827;51.186;6.926;2023-12-14T04:57:58;19.70;59.82
65239;SHT30;51827;51.186;6.926;2023-12-14T04:58:58;19.70;59.82
65239;SHT30;51827;51.186;6.926;2023-12-14T04:59:58;19.71;59.85
65239;SHT30;51827;51.186;6.926;2023-12-14T05:00:59;19.69;59.83
65239;SHT30;51827;51.186;6.926;2023-12-14T05:01:59;19.71;59.76
65239;SHT30;51827;51.186;6.926;2023-12-14T05:02:59;19.70;59.79
65239;SHT30;51827;51.186;6.926;2023-12-14T05:03:59;19.71;59.76
65239;SHT30;51827;51.186;6.926;2023-12-14T05:05:00;19.71;59.71
65239;SHT30;51827;51.186;6.926;2023-12-14T05:06:00;19.71;59.72
65239;SHT30;51827;51.186;6.926;2023-12-14T05:07:01;19.73;59.75
65239;SHT30;51827;51.186;6.926;2023-12-14T05:08:01;19.71;59.76
65239;SHT30;51827;51.186;6.926;2023-12-14T05:09:01;19.71;59.80
65239;SHT30;51827;51.186;6.926;2023-12-14T05:10:01;19.70;59.75
65239;SHT30;51827;51.186;6.926;2023-12-14T05:11:02;19.71;59.81
65239;SHT30;51827;51.186;6.926;2023-12-14T05:12:02;19.71;59.80
65239;SHT30;51827;51.186;6.926;2023-12-14T05:13:03;19.73;59.75
65239;SHT30;51827;51.186;6.926;2023-12-14T05:14:03;19.73;59.75
65239;SHT30;51827;51.186;6.926;2023-12-14T05:15:05;19.71;59.78
65239;SHT30;51827;51.186;6.926;2023-12-14T05:16:06;19.74;60.28
65239;SHT30;51827;51.186;6.926;2023-12-14T05:17:06;19.74;60.70
65239;SHT30;51827;51.186;6.926;2023-12-14T05:18:07;19.75;60.55
65239;SHT30;51827;51.186;6.926;2023-12-14T05:19:07;19.73;60.26
65239;SHT30;51827;51.186;6.926;2023-12-14T05:20:08;19.70;60.20
65239;SHT30;51827;51.186;6.926;2023-12-14T05:21:08;19.73;60.20
65239;SHT30;51827;51.186;6.926;2023-12-14T05:22:09;19.74;60.17
65239;SHT30;51827;51.186;6.926;2023-12-14T05:23:09;19.71;60.15
65239;SHT30;51827;51.186;6.926;2023-12-14T05:24:09;19.73;60.09
65239;SHT30;51827;51.186;6.926;2023-12-14T05:25:09;19.74;60.01
65239;SHT30;51827;51.186;6.926;2023-12-14T05:26:10;19.70;60.02
65239;SHT30;51827;51.186;6.926;2023-12-14T05:27:10;19.75;60.55
65239;SHT30;51827;51.186;6.926;2023-12-14T05:28:10;19.74;60.93
65239;SHT30;51827;51.186;6.926;2023-12-14T05:29:10;19.74;61.05
65239;SHT30;51827;51.186;6.926;2023-12-14T05:30:11;19.75;61.06
65239;SHT30;51827;51.186;6.926;2023-12-14T05:31:11;19.75;61.13
65239;SHT30;51827;51.186;6.926;2023-12-14T05:32:11;19.74;61.13
65239;SHT30;51827;51.186;6.926;2023-12-14T05:34:14;19.74;61.05
65239;SHT30;51827;51.186;6.926;2023-12-14T05:35:14;19.75;60.88
65239;SHT30;51827;51.186;6.926;2023-12-14T05:36:14;19.75;60.76
65239;SHT30;51827;51.186;6.926;2023-12-14T05:37:15;19.77;60.74
65239;SHT30;51827;51.186;6.926;2023-12-14T05:38:15;19.75;60.64
65239;SHT30;51827;51.186;6.926;2023-12-14T05:39:15;19.75;60.56
65239;SHT30;51827;51.186;6.926;2023-12-14T05:40:15;19.75;60.48
65239;SHT30;51827;51.186;6.926;2023-12-14T05:41:16;19.73;60.43
65239;SHT30;51827;51.186;6.926;2023-12-14T05:42:17;19.74;60.42
65239;SHT30;51827;51.186;6.926;2023-12-14T05:43:17;19.74;60.40
65239;SHT30;51827;51.186;6.926;2023-12-14T05:44:17;19.71;60.40
65239;SHT30;51827;51.186;6.926;2023-12-14T05:45:17;19.74;60.35
65239;SHT30;51827;51.186;6.926;2023-12-14T05:46:24;19.74;60.29
65239;SHT30;51827;51.186;6.926;2023-12-14T05:47:26;19.74;60.23
65239;SHT30;51827;51.186;6.926;2023-12-14T05:48:26;19.74;60.26
65239;SHT30;51827;51.186;6.926;2023-12-14T05:49:26;19.75;60.21
65239;SHT30;51827;51.186;6.926;2023-12-14T05:50:27;19.74;60.18
65239;SHT30;51827;51.186;6.926;2023-12-14T05:51:31;19.73;60.16
65239;SHT30;51827;51.186;6.926;2023-12-14T05:52:31;19.75;60.11
65239;SHT30;51827;51.186;6.926;2023-12-14T05:53:31;19.74;60.09
65239;SHT30;51827;51.186;6.926;2023-12-14T05:54:32;19.74;60.07
65239;SHT30;51827;51.186;6.926;2023-12-14T05:55:32;19.74;60.06
65239;SHT30;51827;51.186;6.926;2023-12-14T05:56:32;19.74;60.05
65239;SHT30;51827;51.186;6.926;2023-12-14T05:57:32;19.75;60.02
65239;SHT30;51827;51.186;6.926;2023-12-14T05:58:33;19.71;60.02
65239;SHT30;51827;51.186;6.926;2023-12-14T05:59:33;19.75;60.00
65239;SHT30;51827;51.186;6.926;2023-12-14T06:00:33;19.75;59.96
65239;SHT30;51827;51.186;6.926;2023-12-14T06:01:34;19.74;60.00
65239;SHT30;51827;51.186;6.926;2023-12-14T06:02:34;19.74;59.97
65239;SHT30;51827;51.186;6.926;2023-12-14T06:03:34;19.75;59.93
65239;SHT30;51827;51.186;6.926;2023-12-14T06:04:34;19.74;59.93
65239;SHT30;51827;51.186;6.926;2023-12-14T06:05:35;19.74;59.94
65239;SHT30;51827;51.186;6.926;2023-12-14T06:06:38;19.77;59.89
65239;SHT30;51827;51.186;6.926;2023-12-14T06:07:38;19.75;59.89
65239;SHT30;51827;51.186;6.926;2023-12-14T06:08:38;19.77;59.90
65239;SHT30;51827;51.186;6.926;2023-12-14T06:09:39;19.74;59.89
65239;SHT30;51827;51.186;6.926;2023-12-14T06:10:39;19.74;59.89
65239;SHT30;51827;51.186;6.926;2023-12-14T06:11:39;19.75;59.90
65239;SHT30;51827;51.186;6.926;2023-12-14T06:12:40;19.73;59.86
65239;SHT30;51827;51.186;6.926;2023-12-14T06:13:40;19.75;59.89
65239;SHT30;51827;51.186;6.926;2023-12-14T06:14:40;19.73;59.87
65239;SHT30;51827;51.186;6.926;2023-12-14T06:15:40;19.77;59.85
65239;SHT30;51827;51.186;6.926;2023-12-14T06:16:41;19.71;59.84
65239;SHT30;51827;51.186;6.926;2023-12-14T06:17:41;19.74;59.83
65239;SHT30;51827;51.186;6.926;2023-12-14T06:18:42;19.74;59.84
65239;SHT30;51827;51.186;6.926;2023-12-14T06:19:42;19.78;59.84
65239;SHT30;51827;51.186;6.926;2023-12-14T06:20:42;19.75;59.83
65239;SHT30;51827;51.186;6.926;2023-12-14T06:21:42;19.73;59.82
65239;SHT30;51827;51.186;6.926;2023-12-14T06:22:43;19.73;59.85